»·PEaware :: SWA1053 KDEN-KPHX

SWA1053 :: KDEN-KPHX

FLIGHT INFORMATION

Flight Status: Arrived
Operator:
Southwest Airlines
More flights by this operator :: More flights under this callsign
Pilot: Randall C. (13846)
Aircraft: BOEING 737-800
(B738)
More flights by this aircraft type
Origin: KDEN Denver Intl
United States
Destination: KPHX Phoenix Sky Harbor Intl
United States
More flights between these airports :: More routes between these airports
Route: SOLAR3 DAAYE GUP EAGUL6
File this flight plan on PilotEdge
Remarks: PBN / A1B1C1D1S1S2 DOF / 171114 REG / N8301J EET / KZAB0046 OPR / SWA PER / C RMK / TCAS SIMBRIEF
Altitude:
(Current/Filed)
32,000ft
Speed:
(Current/Filed)
459kts
Departed: 14-Nov-17 11:16 AM
Arrived: 14-Nov-17 12:55 PM
Distance/Time
Traveled:
522nm/1:39
Distance/Time
To Go:
Arrived

Flight Plot

Page will automatically refresh every two minutes.


Map Options




Map Legend


Flown Route
Filed Route
Departure Airport
Arrival Airport
Navaid (VOR, NDB)
Fix

Horizontal Profiles

Position Reports

Time Latitude Longitude Heading Altitude Ground
Speed
14-Nov-17 10:36 39.862622 -104.677071 359 5439ft 0kts
14-Nov-17 10:37 39.862622 -104.677071 359 5439ft 0kts
14-Nov-17 10:38 39.862622 -104.677071 359 5439ft 0kts
14-Nov-17 10:39 39.862622 -104.677071 359 5439ft 0kts
14-Nov-17 10:40 39.862622 -104.677071 359 5439ft 0kts
14-Nov-17 10:41 39.862622 -104.677071 359 5439ft 0kts
14-Nov-17 10:42 39.862622 -104.677071 359 5439ft 0kts
14-Nov-17 10:43 39.862622 -104.677071 359 5439ft 0kts
14-Nov-17 10:44 39.862622 -104.677071 359 5439ft 0kts
14-Nov-17 10:45 39.862622 -104.677071 359 5439ft 0kts
14-Nov-17 10:46 39.862622 -104.677071 359 5439ft 0kts
14-Nov-17 10:47 39.862622 -104.677071 359 5439ft 0kts
14-Nov-17 10:48 39.862622 -104.677071 359 5439ft 0kts
14-Nov-17 10:49 39.862622 -104.677071 359 5439ft 0kts
14-Nov-17 10:50 39.862622 -104.677071 359 5439ft 0kts
14-Nov-17 10:51 39.862622 -104.677071 359 5439ft 0kts
14-Nov-17 10:52 39.862622 -104.677071 359 5439ft 0kts
14-Nov-17 10:53 39.862622 -104.677071 359 5439ft 0kts
14-Nov-17 10:54 39.862622 -104.677071 359 5439ft 0kts
14-Nov-17 10:55 39.862622 -104.677071 359 5439ft 0kts
14-Nov-17 10:56 39.862622 -104.677071 359 5439ft 0kts
14-Nov-17 10:57 39.862622 -104.677071 359 5439ft 0kts
14-Nov-17 10:58 39.862622 -104.677071 359 5439ft 0kts
14-Nov-17 10:59 39.862622 -104.677071 359 5439ft 0kts
14-Nov-17 11:00 39.862622 -104.677071 359 5439ft 0kts
14-Nov-17 11:01 39.862622 -104.677071 359 5439ft 0kts
14-Nov-17 11:02 39.862622 -104.677071 359 5439ft 0kts
14-Nov-17 11:03 39.862356 -104.677039 342 5439ft 2kts
14-Nov-17 11:04 39.862024 -104.676472 251 5439ft 2kts
14-Nov-17 11:05 39.862158 -104.676118 241 5439ft 0kts
14-Nov-17 11:06 39.862158 -104.676118 241 5439ft 0kts
14-Nov-17 11:07 39.862158 -104.676118 241 5439ft 0kts
14-Nov-17 11:08 39.862158 -104.676118 241 5439ft 0kts
14-Nov-17 11:09 39.862158 -104.676118 241 5439ft 0kts
14-Nov-17 11:10 39.861410 -104.678536 269 5439ft 2kts
14-Nov-17 11:11 39.861415 -104.681323 270 5439ft 15kts
14-Nov-17 11:12 39.859432 -104.683946 180 5439ft 15kts
14-Nov-17 11:13 39.854303 -104.683943 179 5439ft 20kts
14-Nov-17 11:14 39.851649 -104.684045 180 5439ft 6kts
14-Nov-17 11:15 39.848486 -104.684065 180 5439ft 7kts
14-Nov-17 11:16 39.846523 -104.684078 180 5439ft 6kts
14-Nov-17 11:17 39.844092 -104.684100 181 5439ft 8kts
14-Nov-17 11:18 39.842542 -104.684133 180 5439ft 3kts
14-Nov-17 11:19 39.841782 -104.684148 180 5439ft 2kts
14-Nov-17 11:20 39.840643 -104.685144 270 5439ft 26kts
14-Nov-17 11:21 39.841559 -104.730850 272 6345ft 172kts
14-Nov-17 11:22 39.829757 -104.802041 251 7959ft 247kts
14-Nov-17 11:23 39.796479 -104.891649 230 10631ft 289kts
14-Nov-17 11:24 39.716426 -104.928506 181 13146ft 340kts
14-Nov-17 11:25 39.620260 -104.900405 164 15745ft 381kts
14-Nov-17 11:26 39.521100 -104.834732 165 18013ft 406kts
14-Nov-17 11:27 39.411718 -104.830932 201 20457ft 391kts
14-Nov-17 11:28 39.316013 -104.893575 215 22687ft 390kts
14-Nov-17 11:29 39.226386 -104.974283 224 24670ft 394kts
14-Nov-17 11:30 39.138711 -105.062335 216 26396ft 410kts
14-Nov-17 11:31 39.035527 -105.130557 213 27960ft 422kts
14-Nov-17 11:32 38.929583 -105.198444 213 29657ft 422kts
14-Nov-17 11:33 38.825490 -105.265364 213 31566ft 415kts
14-Nov-17 11:34 38.721389 -105.331687 213 32153ft 417kts
14-Nov-17 11:35 38.618010 -105.397332 213 32125ft 416kts
14-Nov-17 11:36 38.514381 -105.462877 213 32102ft 417kts
14-Nov-17 11:37 38.410142 -105.528601 213 32102ft 417kts
14-Nov-17 11:38 38.306089 -105.594159 213 32127ft 418kts
14-Nov-17 11:39 38.202034 -105.659805 213 32161ft 418kts
14-Nov-17 11:40 38.097387 -105.725225 213 32185ft 419kts
14-Nov-17 11:41 37.998601 -105.799530 227 32201ft 406kts
14-Nov-17 11:42 37.917810 -105.899190 229 32220ft 404kts
14-Nov-17 11:43 37.838243 -105.999642 230 32236ft 404kts
14-Nov-17 11:44 37.758787 -106.100161 230 32250ft 404kts
14-Nov-17 11:45 37.679450 -106.201027 230 32271ft 403kts
14-Nov-17 11:46 37.600206 -106.301230 230 32299ft 403kts
14-Nov-17 11:47 37.521025 -106.400973 230 32323ft 403kts
14-Nov-17 11:48 37.441470 -106.500824 230 32364ft 402kts
14-Nov-17 11:49 37.362294 -106.599873 230 32394ft 401kts
14-Nov-17 11:50 37.282723 -106.699116 230 32395ft 401kts
14-Nov-17 11:51 37.203462 -106.797654 230 32412ft 401kts
14-Nov-17 11:52 37.124091 -106.896016 230 32350ft 402kts
14-Nov-17 11:53 37.044482 -106.994365 230 32324ft 401kts
14-Nov-17 11:54 36.964999 -107.092244 230 32303ft 401kts
14-Nov-17 11:55 36.885531 -107.189816 230 32274ft 401kts
14-Nov-17 11:56 36.805746 -107.287474 230 32265ft 401kts
14-Nov-17 11:57 36.726187 -107.384547 230 32267ft 400kts
14-Nov-17 11:58 36.646358 -107.481661 230 32268ft 400kts
14-Nov-17 11:59 36.566799 -107.578150 230 32268ft 399kts
14-Nov-17 12:00 36.487158 -107.674439 230 32259ft 399kts
14-Nov-17 12:01 36.407476 -107.770496 230 32253ft 398kts
14-Nov-17 12:02 36.327951 -107.866073 230 32251ft 398kts
14-Nov-17 12:03 36.248454 -107.961331 230 32256ft 398kts
14-Nov-17 12:04 36.168650 -108.056671 230 32259ft 398kts
14-Nov-17 12:05 36.089033 -108.151507 230 32263ft 398kts
14-Nov-17 12:06 36.009068 -108.246476 230 32268ft 398kts
14-Nov-17 12:07 35.929288 -108.340947 229 32273ft 398kts
14-Nov-17 12:08 35.849420 -108.435246 229 32278ft 398kts
14-Nov-17 12:09 35.769186 -108.529703 229 32282ft 399kts
14-Nov-17 12:10 35.689108 -108.623887 229 32278ft 398kts
14-Nov-17 12:11 35.608616 -108.718186 229 32262ft 399kts
14-Nov-17 12:12 35.528228 -108.811840 229 32260ft 399kts
14-Nov-17 12:13 35.448875 -108.906479 232 32262ft 396kts
14-Nov-17 12:14 35.373083 -109.005307 232 32265ft 397kts
14-Nov-17 12:15 35.297163 -109.103447 232 32271ft 397kts
14-Nov-17 12:16 35.221271 -109.201285 232 32267ft 397kts
14-Nov-17 12:17 35.145096 -109.299509 232 32260ft 397kts
14-Nov-17 12:18 35.081647 -109.380897 232 32254ft 397kts
14-Nov-17 12:19 35.005294 -109.478830 232 32252ft 397kts
14-Nov-17 12:20 34.916141 -109.592300 232 32247ft 397kts
14-Nov-17 12:21 34.852364 -109.673195 232 32247ft 398kts
14-Nov-17 12:22 34.775778 -109.770743 232 32249ft 398kts
14-Nov-17 12:23 34.705539 -109.872757 245 32255ft 389kts
14-Nov-17 12:24 34.651408 -110.009292 248 31744ft 375kts
14-Nov-17 12:25 34.615880 -110.103850 248 30754ft 367kts
14-Nov-17 12:26 34.573856 -110.216195 248 29654ft 364kts
14-Nov-17 12:27 34.531807 -110.327740 248 28551ft 361kts
14-Nov-17 12:28 34.490246 -110.437744 247 27451ft 357kts
14-Nov-17 12:29 34.449207 -110.546650 247 26425ft 354kts
14-Nov-17 12:30 34.408018 -110.654829 247 25422ft 351kts
14-Nov-17 12:31 34.367145 -110.761676 246 24421ft 348kts
14-Nov-17 12:32 34.307664 -110.855447 230 24257ft 353kts
14-Nov-17 12:33 34.242232 -110.940369 230 23069ft 338kts
14-Nov-17 12:34 34.179071 -111.021783 231 21699ft 332kts
14-Nov-17 12:35 34.115356 -111.103701 231 20695ft 326kts
14-Nov-17 12:36 34.054438 -111.182181 231 19695ft 318kts
14-Nov-17 12:37 33.994501 -111.258990 231 18696ft 312kts
14-Nov-17 12:38 33.935208 -111.334667 231 17711ft 305kts
14-Nov-17 12:39 33.878634 -111.408537 237 16625ft 288kts
14-Nov-17 12:40 33.836247 -111.488674 241 15343ft 280kts
14-Nov-17 12:41 33.794938 -111.567385 240 14067ft 277kts
14-Nov-17 12:42 33.753482 -111.645345 240 13110ft 276kts
14-Nov-17 12:43 33.713668 -111.719881 240 12135ft 263kts
14-Nov-17 12:44 33.675746 -111.791357 240 11046ft 251kts
14-Nov-17 12:45 33.639746 -111.859072 239 10428ft 233kts
14-Nov-17 12:46 33.604568 -111.925334 238 9388ft 237kts
14-Nov-17 12:47 33.569174 -111.991724 238 8278ft 236kts
14-Nov-17 12:48 33.533838 -112.057868 238 7175ft 234kts
14-Nov-17 12:49 33.524637 -112.132779 270 7049ft 231kts
14-Nov-17 12:50 33.523987 -112.210493 268 7019ft 233kts
14-Nov-17 12:51 33.523089 -112.287495 268 7009ft 217kts
14-Nov-17 12:52 33.522253 -112.355766 265 7009ft 200kts
14-Nov-17 12:53 33.481419 -112.357214 123 7054ft 213kts
14-Nov-17 12:54 33.450905 -112.294984 120 6234ft 219kts
14-Nov-17 12:55 33.440444 -112.226686 88 4338ft 201kts
14-Nov-17 12:56 33.440813 -112.167854 90 3401ft 158kts
14-Nov-17 12:57 33.440824 -112.116757 90 2596ft 152kts
14-Nov-17 12:58 33.434279 -112.067727 111 1844ft 148kts
14-Nov-17 12:59 33.431061 -112.017116 90 1143ft 136kts
14-Nov-17 13:00 33.431879 -112.002981 53 1143ft 12kts
14-Nov-17 13:01 33.432349 -112.000958 41 1143ft 12kts
14-Nov-17 13:02 33.432887 -111.999436 90 1143ft 9kts
14-Nov-17 13:03 33.432872 -111.996662 78 1143ft 3kts
14-Nov-17 13:04 33.433294 -111.996444 0 1143ft 0kts
14-Nov-17 13:05 33.433461 -111.996445 359 1143ft 0kts
14-Nov-17 13:06 33.433461 -111.996445 359 1143ft 0kts
14-Nov-17 13:07 33.433461 -111.996445 359 1143ft 0kts
14-Nov-17 13:08 33.433461 -111.996445 359 1143ft 0kts
14-Nov-17 13:09 33.433461 -111.996445 359 1143ft 0kts

Navigation Log

Ident Type
1. KDEN Airport
2. GUP Navaid
3. SLIDR Fix
4. PAYSO Fix
5. EAGUL Fix
6. PICHR Fix
7. HOMRR Fix
8. QUENY Fix
9. HINEY Fix
10. BASBL Fix
11. KPHX Airport